Time;durP1;ratioP1;P1;durP2;ratioP2;P2;SDS_P1;SDS_P2;PMS_P1;PMS_P2;Temp;Humidity;BMP_temperature;BMP_pressure;BME280_temperature;BME280_humidity;BME280_pressure;Samples;Min_cycle;Max_cycle;Signal;HPM_P1;HPM_P2
2022/12/13 05:31:46;;;;;;;;;30.75;26.50;;;;;;;;5370594;22;45869;-59
2022/12/13 05:34:11;;;;;;;;;39.25;30.75;;;;;;;;5051643;28;45448;-59
2022/12/13 05:36:36;;;;;;;;;35.25;27.00;;;;;;;;5055330;28;45649;-60
2022/12/13 05:39:01;;;;;;;;;35.75;22.50;;;;;;;;5052175;28;45979;-60
2022/12/13 05:41:28;;;;;;;;;35.00;28.00;;;;;;;;5049706;28;45283;-60
2022/12/13 05:43:53;;;;;;;;;43.00;28.00;;;;;;;;5048740;28;45806;-59
2022/12/13 05:46:19;;;;;;;;;33.00;29.50;;;;;;;;5039116;28;45423;-59
2022/12/13 05:48:44;;;;;;;;;37.25;28.25;;;;;;;;5044519;28;45961;-60
2022/12/13 05:51:09;;;;;;;;;32.75;28.00;;;;;;;;5041854;28;45441;-60
2022/12/13 05:53:34;;;;;;;;;38.00;28.00;;;;;;;;5042737;28;45512;-60
2022/12/13 05:56:00;;;;;;;;;32.75;29.75;;;;;;;;5047612;28;45579;-59
2022/12/13 05:58:25;;;;;;;;;30.50;26.25;;;;;;;;5054829;28;45595;-60
2022/12/13 06:00:50;;;;;;;;;27.00;23.75;;;;;;;;5048399;28;45227;-60
2022/12/13 06:03:16;;;;;;;;;32.25;28.75;;;;;;;;5057936;28;45470;-59
2022/12/13 06:05:42;;;;;;;;;34.00;26.25;;;;;;;;5051212;28;45284;-59
2022/12/13 06:08:08;;;;;;;;;29.75;28.00;;;;;;;;5038085;28;45435;-60
2022/12/13 06:10:33;;;;;;;;;49.50;27.25;;;;;;;;5052161;27;45601;-60
2022/12/13 06:12:58;;;;;;;;;37.00;30.25;;;;;;;;5041646;28;45403;-60
2022/12/13 06:15:23;;;;;;;;;34.25;30.25;;;;;;;;5046699;28;45523;-60
2022/12/13 06:17:48;;;;;;;;;40.75;28.50;;;;;;;;5046798;28;45465;-60
2022/12/13 06:20:14;;;;;;;;;38.00;26.50;;;;;;;;5049327;28;45875;-60
2022/12/13 06:22:39;;;;;;;;;41.50;30.00;;;;;;;;5042168;28;45644;-59
2022/12/13 06:25:04;;;;;;;;;27.25;27.25;;;;;;;;5054499;28;45444;-59
2022/12/13 06:27:29;;;;;;;;;37.75;29.75;;;;;;;;5042346;28;46279;-59
2022/12/13 06:29:54;;;;;;;;;37.50;29.00;;;;;;;;5044534;28;45334;-59
2022/12/13 06:32:19;;;;;;;;;47.50;36.50;;;;;;;;5042423;28;45651;-58
2022/12/13 06:34:45;;;;;;;;;35.25;30.50;;;;;;;;5042250;28;45484;-59
2022/12/13 06:37:11;;;;;;;;;41.00;36.75;;;;;;;;5040536;28;46107;-59
2022/12/13 06:39:36;;;;;;;;;41.25;31.75;;;;;;;;5045094;28;45572;-59
2022/12/13 06:42:04;;;;;;;;;36.25;31.50;;;;;;;;5040983;28;45408;-59
2022/12/13 06:44:30;;;;;;;;;43.00;29.00;;;;;;;;5038981;28;45331;-60
2022/12/13 06:46:55;;;;;;;;;38.75;35.25;;;;;;;;5042119;28;46206;-59
2022/12/13 06:49:20;;;;;;;;;41.00;30.25;;;;;;;;5041332;28;45327;-58
2022/12/13 06:51:45;;;;;;;;;36.50;31.50;;;;;;;;5041631;28;45228;-58
2022/12/13 06:54:11;;;;;;;;;30.50;29.50;;;;;;;;5045101;28;45340;-59
2022/12/13 06:56:36;;;;;;;;;35.50;29.00;;;;;;;;5041900;28;46289;-59
2022/12/13 06:59:01;;;;;;;;;39.25;31.25;;;;;;;;5042136;28;45203;-59
2022/12/13 07:01:26;;;;;;;;;39.50;33.25;;;;;;;;5046149;28;45482;-59
2022/12/13 07:03:57;;;;;;;;;43.25;30.25;;;;;;;;5048430;28;45241;-59
2022/12/13 07:06:23;;;;;;;;;32.25;28.50;;;;;;;;5058389;28;45385;-59
2022/12/13 07:08:50;;;;;;;;;33.50;29.75;;;;;;;;5056801;28;45648;-59
2022/12/13 07:11:16;;;;;;;;;27.25;22.25;;;;;;;;5050539;28;45216;-60
2022/12/13 07:13:42;;;;;;;;;30.50;27.50;;;;;;;;5046693;28;45694;-59
2022/12/13 07:16:07;;;;;;;;;22.00;17.75;;;;;;;;5049456;28;46097;-59
2022/12/13 07:18:32;;;;;;;;;30.75;27.00;;;;;;;;5046153;28;45188;-59
2022/12/13 07:20:58;;;;;;;;;32.25;28.25;;;;;;;;5045295;28;45648;-61
2022/12/13 07:23:23;;;;;;;;;45.75;31.25;;;;;;;;5060138;28;45262;-61
2022/12/13 07:25:52;;;;;;;;;38.50;35.25;;;;;;;;5060932;28;46894;-61
2022/12/13 07:28:18;;;;;;;;;38.00;33.75;;;;;;;;5042029;28;45347;-61
2022/12/13 07:30:43;;;;;;;;;40.50;34.00;;;;;;;;5053930;28;45492;-62
2022/12/13 07:33:09;;;;;;;;;52.00;41.50;;;;;;;;5048237;28;45293;-61
2022/12/13 07:35:34;;;;;;;;;86.00;65.25;;;;;;;;5060561;28;46345;-61
2022/12/13 07:38:00;;;;;;;;;78.00;61.75;;;;;;;;5060514;28;45496;-61
2022/12/13 07:40:25;;;;;;;;;81.50;62.75;;;;;;;;5060867;28;45552;-62
2022/12/13 07:42:50;;;;;;;;;56.00;46.75;;;;;;;;5060949;28;45428;-60
2022/12/13 07:45:16;;;;;;;;;68.00;54.25;;;;;;;;5060589;28;46197;-62
2022/12/13 07:47:41;;;;;;;;;49.75;40.50;;;;;;;;5061293;28;45179;-60
2022/12/13 07:50:06;;;;;;;;;53.50;44.25;;;;;;;;5047374;28;45366;-60
2022/12/13 07:52:31;;;;;;;;;59.50;43.50;;;;;;;;5040982;28;45233;-61
2022/12/13 07:54:56;;;;;;;;;67.00;48.50;;;;;;;;5040648;28;46294;-61
2022/12/13 07:57:22;;;;;;;;;68.50;53.75;;;;;;;;5041122;28;45274;-61
2022/12/13 07:59:47;;;;;;;;;70.00;53.25;;;;;;;;5044909;28;45574;-61
2022/12/13 08:02:12;;;;;;;;;70.25;52.75;;;;;;;;5056547;28;45270;-62
2022/12/13 08:04:37;;;;;;;;;89.75;66.25;;;;;;;;5047693;28;45318;-61
2022/12/13 08:07:05;;;;;;;;;64.25;52.50;;;;;;;;5059473;28;45449;-61
2022/12/13 08:09:30;;;;;;;;;70.50;57.50;;;;;;;;5058187;28;45397;-62
2022/12/13 08:11:55;;;;;;;;;53.75;46.00;;;;;;;;5046413;28;45480;-62
2022/12/13 08:14:20;;;;;;;;;48.25;43.25;;;;;;;;5052111;28;46350;-61
2022/12/13 08:16:45;;;;;;;;;48.00;43.25;;;;;;;;5052856;28;45434;-62
2022/12/13 08:19:11;;;;;;;;;47.25;40.00;;;;;;;;5051585;28;45822;-62
2022/12/13 08:21:38;;;;;;;;;46.00;37.00;;;;;;;;5058963;28;45630;-62
2022/12/13 08:24:03;;;;;;;;;27.25;22.00;;;;;;;;5052999;28;45442;-60
2022/12/13 08:26:28;;;;;;;;;45.00;38.50;;;;;;;;5048036;28;45406;-61
2022/12/13 08:28:53;;;;;;;;;55.50;44.25;;;;;;;;5050097;28;45338;-60
2022/12/13 08:31:18;;;;;;;;;45.25;38.25;;;;;;;;5052538;28;45598;-60
2022/12/13 08:33:46;;;;;;;;;51.50;41.25;;;;;;;;5050858;28;46008;-60
2022/12/13 08:36:14;;;;;;;;;54.75;43.75;;;;;;;;5045042;28;45262;-61
2022/12/13 08:38:40;;;;;;;;;57.50;43.00;;;;;;;;5051243;28;45556;-61
2022/12/13 08:41:05;;;;;;;;;55.75;44.25;;;;;;;;5048028;28;45610;-61
2022/12/13 08:43:31;;;;;;;;;41.25;37.50;;;;;;;;5053675;28;45399;-61
2022/12/13 08:45:56;;;;;;;;;44.75;37.00;;;;;;;;5047628;28;45378;-61
2022/12/13 08:48:21;;;;;;;;;53.00;43.00;;;;;;;;5045012;28;45378;-61
2022/12/13 08:50:46;;;;;;;;;46.00;41.50;;;;;;;;5045658;28;46342;-61
2022/12/13 08:53:12;;;;;;;;;53.00;44.50;;;;;;;;5046172;28;45498;-61
2022/12/13 08:55:37;;;;;;;;;41.25;38.75;;;;;;;;5050182;28;45449;-61
2022/12/13 08:58:03;;;;;;;;;45.25;42.75;;;;;;;;5047568;28;45228;-61
2022/12/13 09:00:28;;;;;;;;;54.75;45.75;;;;;;;;5049929;28;45502;-61
2022/12/13 09:02:56;;;;;;;;;72.50;55.75;;;;;;;;5044627;28;45354;-61
2022/12/13 09:05:21;;;;;;;;;80.00;61.00;;;;;;;;5045776;28;45295;-61
2022/12/13 09:07:46;;;;;;;;;70.50;47.75;;;;;;;;5053803;28;45322;-61
2022/12/13 09:10:11;;;;;;;;;61.75;44.25;;;;;;;;5044792;28;45636;-61
2022/12/13 09:12:39;;;;;;;;;70.50;49.00;;;;;;;;5051468;28;46342;-61
2022/12/13 09:15:05;;;;;;;;;56.75;43.50;;;;;;;;5053923;28;45386;-61
2022/12/13 09:17:31;;;;;;;;;57.50;43.75;;;;;;;;5046415;28;45363;-61
2022/12/13 09:19:56;;;;;;;;;61.75;51.50;;;;;;;;5048627;28;45351;-61
2022/12/13 09:22:22;;;;;;;;;59.75;45.00;;;;;;;;5054824;28;45987;-61
2022/12/13 09:24:47;;;;;;;;;53.50;44.00;;;;;;;;5054246;28;45287;-61
2022/12/13 09:27:12;;;;;;;;;61.00;45.25;;;;;;;;5051612;28;45389;-61
2022/12/13 09:29:38;;;;;;;;;51.25;43.50;;;;;;;;5052217;28;45350;-60
2022/12/13 09:32:04;;;;;;;;;61.75;47.00;;;;;;;;5050969;28;46130;-61
2022/12/13 09:34:29;;;;;;;;;46.50;41.00;;;;;;;;5047828;28;45391;-61
2022/12/13 09:36:54;;;;;;;;;55.50;44.00;;;;;;;;5044170;28;45460;-60
2022/12/13 09:39:19;;;;;;;;;50.75;41.75;;;;;;;;5049896;28;45481;-60
2022/12/13 09:41:47;;;;;;;;;60.25;46.00;;;;;;;;5052260;28;46442;-60
2022/12/13 09:44:20;;;;;;;;;60.75;42.25;;;;;;;;5052248;28;45624;-60
2022/12/13 09:46:47;;;;;;;;;58.75;42.00;;;;;;;;5048242;28;45229;-60
2022/12/13 09:49:21;;;;;;;;;70.50;52.25;;;;;;;;5048315;28;45311;-60
2022/12/13 09:51:49;;;;;;;;;67.25;48.00;;;;;;;;5051217;28;46240;-60
2022/12/13 09:54:19;;;;;;;;;71.50;56.50;;;;;;;;5049539;28;45674;-61
2022/12/13 09:56:49;;;;;;;;;51.25;44.75;;;;;;;;5041178;28;45292;-60
2022/12/13 09:59:14;;;;;;;;;47.25;40.50;;;;;;;;5054112;28;45583;-61
2022/12/13 10:01:40;;;;;;;;;52.25;42.50;;;;;;;;5046266;28;46131;-61
2022/12/13 10:04:08;;;;;;;;;46.25;39.50;;;;;;;;5057367;28;45410;-61
2022/12/13 10:06:35;;;;;;;;;40.50;38.50;;;;;;;;5047606;28;45389;-61
2022/12/13 10:09:00;;;;;;;;;46.25;33.75;;;;;;;;5045056;28;45473;-61
2022/12/13 10:11:27;;;;;;;;;56.00;43.75;;;;;;;;5048845;28;45703;-61
2022/12/13 10:14:04;;;;;;;;;49.50;38.25;;;;;;;;5049741;28;45990;-61
2022/12/13 10:16:44;;;;;;;;;38.25;36.50;;;;;;;;5050970;28;45808;-61
2022/12/13 10:19:12;;;;;;;;;46.25;39.25;;;;;;;;5054188;28;45674;-62
2022/12/13 10:21:40;;;;;;;;;36.25;34.50;;;;;;;;5048813;28;45743;-61
2022/12/13 10:24:19;;;;;;;;;46.00;38.75;;;;;;;;5050064;28;45359;-62
2022/12/13 10:26:44;;;;;;;;;48.00;40.25;;;;;;;;5051571;28;45473;-62
2022/12/13 10:29:09;;;;;;;;;41.25;34.75;;;;;;;;5047435;28;45347;-62
2022/12/13 10:31:39;;;;;;;;;44.75;37.75;;;;;;;;5049503;28;46043;-61
2022/12/13 10:34:04;;;;;;;;;50.25;39.50;;;;;;;;5040583;28;45400;-62
2022/12/13 10:36:29;;;;;;;;;46.75;38.25;;;;;;;;5052188;28;45212;-62
2022/12/13 10:38:55;;;;;;;;;36.75;32.75;;;;;;;;5047976;28;45277;-62
2022/12/13 10:41:26;;;;;;;;;41.25;33.75;;;;;;;;5044726;28;45882;-62
2022/12/13 10:44:14;;;;;;;;;45.00;36.00;;;;;;;;5044787;28;45449;-62
2022/12/13 10:47:00;;;;;;;;;49.50;38.50;;;;;;;;5042443;28;45303;-62
2022/12/13 10:49:28;;;;;;;;;42.00;38.00;;;;;;;;5047972;28;45464;-63
2022/12/13 10:51:54;;;;;;;;;48.00;36.00;;;;;;;;5039567;28;47079;-62
2022/12/13 10:54:30;;;;;;;;;45.25;37.00;;;;;;;;5055855;28;45490;-61
2022/12/13 10:56:59;;;;;;;;;41.25;36.00;;;;;;;;5053556;28;45438;-61
2022/12/13 10:59:24;;;;;;;;;39.75;34.50;;;;;;;;5059943;28;45211;-62
2022/12/13 11:01:50;;;;;;;;;41.00;34.50;;;;;;;;5047953;28;45467;-62
2022/12/13 11:04:28;;;;;;;;;40.50;33.50;;;;;;;;5041142;28;45264;-61
2022/12/13 11:06:54;;;;;;;;;37.50;33.50;;;;;;;;5041834;28;45292;-61
2022/12/13 11:09:30;;;;;;;;;33.67;32.33;;;;;;;;5053866;28;45422;-61
2022/12/13 11:11:56;;;;;;;;;37.75;34.25;;;;;;;;5057425;28;45863;-61
2022/12/13 11:14:27;;;;;;;;;44.50;35.00;;;;;;;;5041456;28;45474;-62
2022/12/13 11:16:56;;;;;;;;;39.25;36.75;;;;;;;;5052657;28;45402;-62
2022/12/13 11:19:25;;;;;;;;;36.33;29.67;;;;;;;;5041519;28;45404;-62
2022/12/13 11:21:51;;;;;;;;;41.33;36.67;;;;;;;;5041868;28;47103;-62
2022/12/13 11:24:21;;;;;;;;;49.00;30.00;;;;;;;;5041471;28;45277;-62
2022/12/13 11:26:51;;;;;;;;;37.67;35.00;;;;;;;;5044717;28;45433;-63
2022/12/13 11:29:36;;;;;;;;;41.33;35.00;;;;;;;;5042923;28;45311;-61
2022/12/13 11:32:21;;;;;;;;;35.75;27.50;;;;;;;;5044216;28;45899;-61
2022/12/13 11:34:55;;;;;;;;;46.00;37.25;;;;;;;;5038941;28;45436;-61
2022/12/13 11:37:21;;;;;;;;;51.00;40.00;;;;;;;;5045204;28;45474;-61
2022/12/13 11:39:51;;;;;;;;;42.00;36.75;;;;;;;;5045474;28;45433;-61
2022/12/13 11:42:28;;;;;;;;;45.75;39.50;;;;;;;;5045861;28;46284;-61
2022/12/13 11:45:00;;;;;;;;;43.75;38.75;;;;;;;;5049981;28;45403;-61
2022/12/13 11:47:29;;;;;;;;;34.00;26.75;;;;;;;;5050541;28;45379;-61
2022/12/13 11:49:55;;;;;;;;;46.25;37.50;;;;;;;;5053308;28;45569;-61
2022/12/13 11:52:20;;;;;;;;;48.75;40.00;;;;;;;;5044069;28;46321;-61
2022/12/13 11:54:49;;;;;;;;;45.75;37.75;;;;;;;;5047171;28;45472;-61
2022/12/13 11:57:34;;;;;;;;;41.50;37.25;;;;;;;;5052421;28;45486;-62
2022/12/13 12:00:08;;;;;;;;;52.25;40.25;;;;;;;;5052052;28;45770;-62
2022/12/13 12:02:34;;;;;;;;;43.00;36.50;;;;;;;;5046760;28;46101;-61
2022/12/13 12:05:03;;;;;;;;;41.25;35.25;;;;;;;;5037673;28;45438;-61
2022/12/13 12:07:35;;;;;;;;;38.75;34.75;;;;;;;;5051705;28;45344;-62
2022/12/13 12:10:16;;;;;;;;;43.25;35.75;;;;;;;;5040460;28;45394;-62
2022/12/13 12:12:44;;;;;;;;;35.00;33.00;;;;;;;;5046088;28;45395;-62
2022/12/13 12:15:16;;;;;;;;;41.00;33.75;;;;;;;;5049861;28;45497;-62
2022/12/13 12:17:42;;;;;;;;;46.00;34.00;;;;;;;;5057043;28;45442;-62
2022/12/13 12:20:14;;;;;;;;;32.00;30.67;;;;;;;;5041020;28;45429;-62
2022/12/13 12:22:46;;;;;;;;;39.33;34.33;;;;;;;;5046901;28;46114;-62
2022/12/13 12:25:20;;;;;;;;;29.33;29.00;;;;;;;;5050568;28;45314;-61
2022/12/13 12:27:53;;;;;;;;;40.00;34.00;;;;;;;;5048511;28;45361;-62
2022/12/13 12:30:26;;;;;;;;;34.67;28.33;;;;;;;;5048687;28;45382;-62
2022/12/13 12:32:54;;;;;;;;;43.33;35.00;;;;;;;;5048134;28;45373;-62
2022/12/13 12:35:20;;;;;;;;;35.33;27.33;;;;;;;;5058276;28;45309;-63
2022/12/13 12:37:52;;;;;;;;;29.33;23.67;;;;;;;;5050268;28;45688;-64
2022/12/13 12:40:17;;;;;;;;;39.00;33.33;;;;;;;;5045138;28;45406;-64
2022/12/13 12:42:49;;;;;;;;;25.75;19.75;;;;;;;;5049945;28;46232;-64
2022/12/13 12:45:15;;;;;;;;;36.33;33.00;;;;;;;;5039596;28;45636;-64
2022/12/13 12:47:59;;;;;;;;;36.50;34.00;;;;;;;;5039678;28;45347;-62
2022/12/13 12:50:24;;;;;;;;;36.00;33.00;;;;;;;;5046344;28;45710;-63
2022/12/13 12:53:01;;;;;;;;;40.75;31.00;;;;;;;;5046081;28;45317;-62
2022/12/13 12:55:46;;;;;;;;;44.75;33.25;;;;;;;;5039681;28;45500;-62
2022/12/13 12:58:20;;;;;;;;;34.00;33.33;;;;;;;;5049812;28;45469;-63
2022/12/13 13:01:03;;;;;;;;;42.75;36.75;;;;;;;;5043375;28;45443;-62
2022/12/13 13:03:31;;;;;;;;;34.75;30.00;;;;;;;;5046215;28;46033;-63
2022/12/13 13:06:17;;;;;;;;;37.75;33.00;;;;;;;;5046104;28;45438;-63
2022/12/13 13:09:00;;;;;;;;;38.67;33.33;;;;;;;;5047790;28;45305;-62
2022/12/13 13:11:28;;;;;;;;;39.00;29.33;;;;;;;;5057077;28;45316;-62
2022/12/13 13:13:57;;;;;;;;;31.33;28.00;;;;;;;;5044889;28;45363;-62
2022/12/13 13:16:42;;;;;;;;;25.67;21.67;;;;;;;;5057702;28;45470;-63
2022/12/13 13:19:10;;;;;;;;;31.67;27.00;;;;;;;;5050785;28;45406;-63
2022/12/13 13:21:38;;;;;;;;;34.75;27.00;;;;;;;;5048128;28;45528;-63
2022/12/13 13:24:05;;;;;;;;;35.00;26.00;;;;;;;;5051013;28;46342;-63
2022/12/13 13:26:31;;;;;;;;;35.50;29.25;;;;;;;;5044245;28;45303;-63
2022/12/13 13:29:15;;;;;;;;;35.75;31.00;;;;;;;;5047325;28;45241;-63
2022/12/13 13:31:54;;;;;;;;;37.67;28.00;;;;;;;;5049317;28;45567;-63
2022/12/13 13:34:20;;;;;;;;;33.33;25.33;;;;;;;;5053697;28;45249;-63
2022/12/13 13:36:46;;;;;;;;;26.67;23.33;;;;;;;;5051781;28;45402;-63
2022/12/13 13:39:15;;;;;;;;;33.00;30.75;;;;;;;;5048914;28;45464;-62
2022/12/13 13:41:54;;;;;;;;;36.75;29.00;;;;;;;;5037292;28;45324;-62
2022/12/13 13:44:48;;;;;;;;;25.67;23.67;;;;;;;;5054027;28;46100;-62
2022/12/13 13:47:16;;;;;;;;;33.00;29.25;;;;;;;;5039467;28;46002;-66
2022/12/13 13:49:53;;;;;;;;;28.50;26.75;;;;;;;;5047533;28;45383;-66
2022/12/13 13:52:20;;;;;;;;;32.33;24.33;;;;;;;;5038880;28;45773;-66
2022/12/13 13:55:17;;;;;;;;;32.00;30.00;;;;;;;;5047602;28;45473;-66
2022/12/13 13:57:51;;;;;;;;;29.00;29.00;;;;;;;;5037021;28;45690;-65
2022/12/13 14:00:37;;;;;;;;;35.67;26.33;;;;;;;;5047279;28;45442;-66
2022/12/13 14:03:08;;;;;;;;;36.00;30.00;;;;;;;;5041764;28;46389;-66
2022/12/13 14:05:54;;;;;;;;;44.25;36.25;;;;;;;;5051400;28;45430;-65
2022/12/13 14:08:19;;;;;;;;;33.50;26.00;;;;;;;;5049191;28;45445;-66
2022/12/13 14:10:53;;;;;;;;;29.67;23.33;;;;;;;;5040865;28;45386;-65
2022/12/13 14:13:37;;;;;;;;;32.50;23.25;;;;;;;;5048698;28;45621;-64
2022/12/13 14:16:21;;;;;;;;;28.75;25.50;;;;;;;;5050960;28;45557;-66
2022/12/13 14:18:52;;;;;;;;;30.00;25.67;;;;;;;;5054409;28;45628;-65
2022/12/13 14:21:27;;;;;;;;;28.33;25.67;;;;;;;;5049261;28;45193;-65
2022/12/13 14:24:19;;;;;;;;;30.50;25.25;;;;;;;;5041618;28;45449;-65
2022/12/13 14:26:56;;;;;;;;;35.25;29.00;;;;;;;;5042852;28;46179;-64
2022/12/13 14:29:26;;;;;;;;;27.00;24.00;;;;;;;;5054303;28;45194;-65
2022/12/13 14:31:51;;;;;;;;;32.75;28.00;;;;;;;;5059355;28;45374;-65
2022/12/13 14:34:27;;;;;;;;;30.25;27.50;;;;;;;;5059156;28;45566;-65
2022/12/13 14:37:02;;;;;;;;;36.00;26.00;;;;;;;;5059805;28;46200;-65
2022/12/13 14:39:29;;;;;;;;;29.50;24.50;;;;;;;;5049401;28;45414;-64
2022/12/13 14:41:56;;;;;;;;;32.25;25.50;;;;;;;;5057529;28;45496;-65
2022/12/13 14:44:24;;;;;;;;;28.50;24.50;;;;;;;;5055965;28;45551;-65
2022/12/13 14:46:54;;;;;;;;;27.00;19.50;;;;;;;;5042794;28;45405;-65
2022/12/13 14:49:20;;;;;;;;;23.50;21.50;;;;;;;;5051715;28;45564;-62
2022/12/13 14:51:46;;;;;;;;;30.25;27.25;;;;;;;;5049694;28;45361;-62
2022/12/13 14:54:20;;;;;;;;;25.75;23.50;;;;;;;;5047503;28;45372;-63
2022/12/13 14:56:55;;;;;;;;;34.00;23.00;;;;;;;;5055095;28;45463;-62
2022/12/13 14:59:20;;;;;;;;;33.75;24.50;;;;;;;;5050898;28;45339;-62
2022/12/13 15:01:52;;;;;;;;;22.00;21.75;;;;;;;;5052909;28;45853;-62
2022/12/13 15:04:20;;;;;;;;;20.75;14.75;;;;;;;;5054532;28;45490;-63
2022/12/13 15:06:47;;;;;;;;;25.75;21.50;;;;;;;;5048933;28;45249;-62
2022/12/13 15:09:13;;;;;;;;;29.75;21.75;;;;;;;;5053096;28;45315;-63
2022/12/13 15:11:38;;;;;;;;;29.75;24.75;;;;;;;;5054144;28;45615;-62
2022/12/13 15:14:05;;;;;;;;;25.50;23.50;;;;;;;;5051420;28;45842;-62
2022/12/13 15:16:30;;;;;;;;;28.50;24.50;;;;;;;;5050607;28;46869;-62
2022/12/13 15:19:15;;;;;;;;;25.50;22.75;;;;;;;;5049585;28;45770;-62
2022/12/13 15:21:40;;;;;;;;;28.50;22.00;;;;;;;;5050152;28;45633;-62
2022/12/13 15:24:06;;;;;;;;;28.00;25.25;;;;;;;;5047449;28;45711;-64
2022/12/13 15:26:32;;;;;;;;;38.00;28.00;;;;;;;;5053912;28;45327;-62
2022/12/13 15:28:59;;;;;;;;;26.75;24.00;;;;;;;;5059165;28;45570;-62
2022/12/13 15:31:24;;;;;;;;;27.00;22.50;;;;;;;;5055686;28;45660;-62
2022/12/13 15:33:50;;;;;;;;;28.75;25.00;;;;;;;;5044554;28;45888;-62
2022/12/13 15:36:21;;;;;;;;;27.25;22.25;;;;;;;;5044068;28;46130;-62
2022/12/13 15:38:56;;;;;;;;;29.50;23.25;;;;;;;;5051082;28;45712;-62
2022/12/13 15:41:27;;;;;;;;;22.75;22.75;;;;;;;;5059235;28;45455;-62
2022/12/13 15:43:53;;;;;;;;;29.00;23.50;;;;;;;;5049329;28;45476;-62
2022/12/13 15:46:26;;;;;;;;;27.25;24.25;;;;;;;;5054829;28;45438;-62
2022/12/13 15:48:52;;;;;;;;;19.75;19.75;;;;;;;;5043679;28;45418;-62
2022/12/13 15:51:18;;;;;;;;;32.25;28.00;;;;;;;;5048166;28;45374;-62
2022/12/13 15:54:02;;;;;;;;;36.50;28.75;;;;;;;;5058654;28;45393;-63
2022/12/13 15:56:56;;;;;;;;;30.00;25.25;;;;;;;;5047348;28;46344;-63
2022/12/13 15:59:27;;;;;;;;;27.50;23.25;;;;;;;;5051302;28;45177;-63
2022/12/13 16:01:53;;;;;;;;;34.00;23.50;;;;;;;;5047966;28;45303;-63
2022/12/13 16:04:23;;;;;;;;;33.75;25.50;;;;;;;;5046131;28;45427;-63
2022/12/13 16:06:51;;;;;;;;;31.50;31.25;;;;;;;;5049764;28;45339;-63
2022/12/13 16:09:17;;;;;;;;;25.75;21.00;;;;;;;;5054234;28;45696;-63
2022/12/13 16:11:47;;;;;;;;;31.75;28.75;;;;;;;;5045141;28;45317;-62
2022/12/13 16:14:22;;;;;;;;;30.25;28.00;;;;;;;;5049549;28;45648;-62
2022/12/13 16:16:47;;;;;;;;;27.00;25.75;;;;;;;;5046309;28;46052;-63
2022/12/13 16:19:14;;;;;;;;;34.00;27.00;;;;;;;;5054012;28;45590;-63
2022/12/13 16:21:40;;;;;;;;;35.75;27.00;;;;;;;;5058997;28;45441;-62
2022/12/13 16:24:05;;;;;;;;;35.00;27.75;;;;;;;;5054831;28;45584;-63
2022/12/13 16:26:32;;;;;;;;;32.50;27.50;;;;;;;;5050625;28;46475;-64
2022/12/13 16:28:59;;;;;;;;;21.25;18.75;;;;;;;;5040291;28;45558;-64
2022/12/13 16:31:26;;;;;;;;;20.25;16.75;;;;;;;;5044215;28;45553;-65
2022/12/13 16:33:51;;;;;;;;;35.00;27.00;;;;;;;;5053062;28;45269;-63
2022/12/13 16:36:17;;;;;;;;;25.25;24.50;;;;;;;;5052748;28;47540;-63
2022/12/13 16:38:42;;;;;;;;;33.00;30.00;;;;;;;;5046698;28;45293;-63
2022/12/13 16:41:07;;;;;;;;;30.00;27.25;;;;;;;;5051913;28;45480;-64
2022/12/13 16:43:33;;;;;;;;;29.25;22.50;;;;;;;;5047757;28;45329;-64
2022/12/13 16:46:01;;;;;;;;;34.00;27.75;;;;;;;;5050299;28;46222;-64
2022/12/13 16:48:26;;;;;;;;;34.00;29.75;;;;;;;;5055337;28;45470;-64
2022/12/13 16:50:52;;;;;;;;;41.00;29.75;;;;;;;;5048452;28;45457;-64
2022/12/13 16:53:17;;;;;;;;;40.25;32.25;;;;;;;;5054503;28;45462;-65
2022/12/13 16:55:42;;;;;;;;;36.25;26.25;;;;;;;;5052609;28;45389;-65
2022/12/13 16:58:15;;;;;;;;;32.50;28.50;;;;;;;;5053389;28;45480;-65
2022/12/13 17:00:41;;;;;;;;;32.75;26.00;;;;;;;;5049267;28;45443;-64
2022/12/13 17:03:07;;;;;;;;;41.75;29.75;;;;;;;;5055015;28;45390;-65
2022/12/13 17:05:33;;;;;;;;;36.75;30.00;;;;;;;;5047484;28;46892;-65
2022/12/13 17:07:58;;;;;;;;;35.00;28.75;;;;;;;;5051546;28;45473;-65
2022/12/13 17:10:23;;;;;;;;;44.50;30.75;;;;;;;;5054431;28;45941;-64
2022/12/13 17:12:49;;;;;;;;;29.50;29.50;;;;;;;;5056018;28;45462;-64
2022/12/13 17:15:14;;;;;;;;;30.50;30.25;;;;;;;;5053840;28;45605;-64
2022/12/13 17:17:41;;;;;;;;;33.00;29.00;;;;;;;;5056580;28;45386;-65
2022/12/13 17:20:10;;;;;;;;;38.00;30.00;;;;;;;;5052045;28;45562;-64
2022/12/13 17:22:35;;;;;;;;;35.50;32.00;;;;;;;;5043263;28;45368;-65
2022/12/13 17:25:00;;;;;;;;;36.75;29.50;;;;;;;;5052209;27;45943;-65
2022/12/13 17:27:26;;;;;;;;;36.50;31.75;;;;;;;;5048846;28;45641;-65
2022/12/13 17:29:51;;;;;;;;;47.50;32.75;;;;;;;;5046478;28;45481;-66
2022/12/13 17:32:16;;;;;;;;;37.50;32.25;;;;;;;;5053601;28;45618;-65
2022/12/13 17:34:41;;;;;;;;;33.25;25.25;;;;;;;;5049868;28;46107;-65
2022/12/13 17:37:06;;;;;;;;;34.25;33.00;;;;;;;;5048361;28;45457;-65
2022/12/13 17:39:32;;;;;;;;;40.75;28.00;;;;;;;;5053939;28;45485;-65
2022/12/13 17:41:57;;;;;;;;;28.25;23.00;;;;;;;;5050376;28;45501;-64
2022/12/13 17:44:25;;;;;;;;;34.75;28.25;;;;;;;;5040512;28;46310;-64
2022/12/13 17:46:52;;;;;;;;;29.25;22.50;;;;;;;;5055356;28;45342;-65
2022/12/13 17:49:17;;;;;;;;;33.25;29.25;;;;;;;;5052270;28;46035;-64
2022/12/13 17:51:42;;;;;;;;;36.75;31.75;;;;;;;;5059108;28;45597;-64
2022/12/13 17:54:07;;;;;;;;;38.25;34.00;;;;;;;;5053986;28;45471;-65
2022/12/13 17:56:33;;;;;;;;;45.25;35.00;;;;;;;;5050578;28;45277;-65
2022/12/13 17:58:58;;;;;;;;;45.00;34.50;;;;;;;;5037381;28;45467;-65
2022/12/13 18:01:24;;;;;;;;;49.75;36.25;;;;;;;;5044619;28;45315;-65
2022/12/13 18:03:54;;;;;;;;;43.50;36.50;;;;;;;;5052139;28;46211;-65
2022/12/13 18:06:19;;;;;;;;;42.25;38.75;;;;;;;;5038538;28;45334;-66
2022/12/13 18:08:45;;;;;;;;;47.75;37.75;;;;;;;;5045003;28;45307;-65
2022/12/13 18:11:11;;;;;;;;;49.75;40.00;;;;;;;;5039539;28;45296;-65
2022/12/13 18:13:36;;;;;;;;;44.00;38.25;;;;;;;;5040990;28;45524;-65
2022/12/13 18:16:05;;;;;;;;;41.75;37.00;;;;;;;;5055272;28;45501;-65
2022/12/13 18:18:31;;;;;;;;;47.75;37.00;;;;;;;;5042732;28;45361;-65
2022/12/13 18:21:00;;;;;;;;;43.75;38.00;;;;;;;;5037783;28;45629;-66
2022/12/13 18:23:26;;;;;;;;;46.50;36.25;;;;;;;;5035345;28;46207;-65
2022/12/13 18:25:51;;;;;;;;;43.75;35.75;;;;;;;;5044760;28;45755;-65
2022/12/13 18:28:17;;;;;;;;;38.00;34.75;;;;;;;;5052391;28;45271;-65
2022/12/13 18:30:42;;;;;;;;;40.75;36.75;;;;;;;;5048090;28;45309;-65
2022/12/13 18:33:07;;;;;;;;;51.50;38.25;;;;;;;;5048614;28;45985;-66
2022/12/13 18:35:32;;;;;;;;;42.00;33.50;;;;;;;;5053936;28;46417;-64
2022/12/13 18:37:58;;;;;;;;;38.00;33.00;;;;;;;;5047026;28;45549;-65
2022/12/13 18:40:23;;;;;;;;;42.25;37.00;;;;;;;;5046854;28;45371;-66
2022/12/13 18:42:48;;;;;;;;;40.50;37.25;;;;;;;;5054519;28;45921;-66
2022/12/13 18:45:14;;;;;;;;;47.50;38.75;;;;;;;;5056905;28;45595;-66
2022/12/13 18:47:39;;;;;;;;;44.50;38.75;;;;;;;;5057293;28;45507;-66
2022/12/13 18:50:05;;;;;;;;;48.50;38.25;;;;;;;;5050396;28;45438;-66
2022/12/13 18:52:30;;;;;;;;;40.00;36.50;;;;;;;;5055144;28;47073;-66
2022/12/13 18:54:55;;;;;;;;;48.00;38.75;;;;;;;;5050530;28;45335;-65
2022/12/13 18:57:21;;;;;;;;;46.00;40.00;;;;;;;;5047284;28;45290;-64
2022/12/13 18:59:46;;;;;;;;;49.75;37.75;;;;;;;;5047212;28;45648;-65
2022/12/13 19:02:12;;;;;;;;;46.50;38.50;;;;;;;;5046128;28;45436;-63
2022/12/13 19:04:37;;;;;;;;;46.75;40.00;;;;;;;;5046749;28;46691;-63
2022/12/13 19:07:02;;;;;;;;;41.50;37.50;;;;;;;;5042384;28;45495;-64
2022/12/13 19:09:28;;;;;;;;;40.25;34.75;;;;;;;;5053685;28;45383;-64
2022/12/13 19:11:53;;;;;;;;;45.00;37.00;;;;;;;;5046757;28;46040;-63
2022/12/13 19:14:18;;;;;;;;;46.50;34.50;;;;;;;;5055239;28;45652;-64
2022/12/13 19:16:43;;;;;;;;;46.00;40.50;;;;;;;;5054000;28;46713;-63
2022/12/13 19:19:08;;;;;;;;;35.50;35.00;;;;;;;;5052653;28;45316;-63
2022/12/13 19:21:34;;;;;;;;;48.75;39.25;;;;;;;;5052674;28;45970;-63
2022/12/13 19:23:59;;;;;;;;;32.25;30.25;;;;;;;;5057471;28;45436;-64
2022/12/13 19:26:27;;;;;;;;;43.25;38.25;;;;;;;;5047866;28;45875;-64
2022/12/13 19:28:54;;;;;;;;;41.25;34.75;;;;;;;;5051209;28;46068;-60
2022/12/13 19:31:19;;;;;;;;;52.00;37.50;;;;;;;;5053106;28;47132;-60
2022/12/13 19:33:45;;;;;;;;;54.00;38.25;;;;;;;;5054628;28;45349;-60
2022/12/13 19:36:10;;;;;;;;;37.25;28.75;;;;;;;;5052219;28;45425;-60
2022/12/13 19:38:36;;;;;;;;;34.50;29.00;;;;;;;;5048976;28;45273;-60
2022/12/13 19:41:06;;;;;;;;;40.50;33.00;;;;;;;;5050050;28;46245;-60
2022/12/13 19:43:31;;;;;;;;;33.00;27.50;;;;;;;;5052892;28;45723;-60
2022/12/13 19:45:56;;;;;;;;;36.25;33.50;;;;;;;;5050482;28;45451;-60
2022/12/13 19:48:22;;;;;;;;;44.50;37.25;;;;;;;;5050087;28;45552;-60
2022/12/13 19:50:47;;;;;;;;;50.50;40.25;;;;;;;;5045690;28;45235;-60
2022/12/13 19:53:12;;;;;;;;;48.25;35.50;;;;;;;;5043567;28;45571;-60